sensor_id;sensor_type;location;lat;lon;timestamp;pressure;altitude;pressure_sealevel;temperature;humidity
43217;BME280;60511;42.686;23.300;2023-03-25T00:01:33;94412.81;;;22.51;28.55
43217;BME280;60511;42.686;23.300;2023-03-25T00:03:35;94447.28;;;22.77;27.78
43217;BME280;60511;42.686;23.300;2023-03-25T00:05:40;94315.22;;;21.94;28.14
43217;BME280;60511;42.686;23.300;2023-03-25T00:07:43;94442.16;;;22.72;27.96
43217;BME280;60511;42.686;23.300;2023-03-25T00:09:43;94258.00;;;21.49;28.35
43217;BME280;60511;42.686;23.300;2023-03-25T00:11:44;94442.88;;;22.69;27.67
43217;BME280;60511;42.686;23.300;2023-03-25T00:13:44;94406.22;;;22.48;27.60
43217;BME280;60511;42.686;23.300;2023-03-25T00:15:45;94428.19;;;22.66;27.64
43217;BME280;60511;42.686;23.300;2023-03-25T00:17:46;94381.97;;;22.32;27.47
43217;BME280;60511;42.686;23.300;2023-03-25T00:19:46;94406.28;;;22.52;27.52
43217;BME280;60511;42.686;23.300;2023-03-25T00:21:49;94400.28;;;22.42;27.45
43217;BME280;60511;42.686;23.300;2023-03-25T00:23:51;94432.00;;;22.65;28.10
43217;BME280;60511;42.686;23.300;2023-03-25T00:25:51;94280.91;;;21.75;28.03
43217;BME280;60511;42.686;23.300;2023-03-25T00:27:52;94391.78;;;22.40;28.40
43217;BME280;60511;42.686;23.300;2023-03-25T00:29:53;94429.59;;;22.60;28.06
43217;BME280;60511;42.686;23.300;2023-03-25T00:31:53;94419.22;;;22.62;27.84
43217;BME280;60511;42.686;23.300;2023-03-25T00:33:54;94420.44;;;22.64;27.89
43217;BME280;60511;42.686;23.300;2023-03-25T00:35:57;94362.91;;;22.25;27.45
43217;BME280;60511;42.686;23.300;2023-03-25T00:38:00;94379.50;;;22.43;27.46
43217;BME280;60511;42.686;23.300;2023-03-25T00:40:02;94421.94;;;22.62;27.79
43217;BME280;60511;42.686;23.300;2023-03-25T00:42:03;94427.03;;;22.67;27.51
43217;BME280;60511;42.686;23.300;2023-03-25T00:44:04;94404.09;;;22.57;27.68
43217;BME280;60511;42.686;23.300;2023-03-25T00:46:04;94422.34;;;22.64;27.54
43217;BME280;60511;42.686;23.300;2023-03-25T00:48:05;94390.97;;;22.56;27.31
43217;BME280;60511;42.686;23.300;2023-03-25T00:50:06;94425.84;;;22.64;27.31
43217;BME280;60511;42.686;23.300;2023-03-25T00:52:06;94395.22;;;22.57;27.88
43217;BME280;60511;42.686;23.300;2023-03-25T00:54:08;94408.06;;;22.63;27.38
43217;BME280;60511;42.686;23.300;2023-03-25T00:56:09;94315.81;;;22.03;28.06
43217;BME280;60511;42.686;23.300;2023-03-25T00:58:09;94397.06;;;22.53;27.56
43217;BME280;60511;42.686;23.300;2023-03-25T01:00:13;94395.72;;;22.62;28.20
43217;BME280;60511;42.686;23.300;2023-03-25T01:02:14;94402.31;;;22.65;27.91
43217;BME280;60511;42.686;23.300;2023-03-25T01:04:15;94396.78;;;22.58;27.84
43217;BME280;60511;42.686;23.300;2023-03-25T01:06:17;94348.91;;;22.35;27.67
43217;BME280;60511;42.686;23.300;2023-03-25T01:08:20;94400.41;;;22.65;27.94
43217;BME280;60511;42.686;23.300;2023-03-25T01:10:24;94389.63;;;22.65;27.60
43217;BME280;60511;42.686;23.300;2023-03-25T01:12:25;94310.06;;;22.04;27.57
43217;BME280;60511;42.686;23.300;2023-03-25T01:14:26;94375.03;;;22.51;27.47
43217;BME280;60511;42.686;23.300;2023-03-25T01:16:27;94367.31;;;22.49;27.73
43217;BME280;60511;42.686;23.300;2023-03-25T01:18:28;94387.97;;;22.61;27.65
43217;BME280;60511;42.686;23.300;2023-03-25T01:20:28;94381.81;;;22.60;27.64
43217;BME280;60511;42.686;23.300;2023-03-25T01:22:29;94387.75;;;22.50;27.74
43217;BME280;60511;42.686;23.300;2023-03-25T01:24:29;94377.75;;;22.51;28.13
43217;BME280;60511;42.686;23.300;2023-03-25T01:26:30;94381.94;;;22.48;28.13
43217;BME280;60511;42.686;23.300;2023-03-25T01:28:31;94330.72;;;22.32;27.80
43217;BME280;60511;42.686;23.300;2023-03-25T01:30:31;94351.94;;;22.50;27.73
43217;BME280;60511;42.686;23.300;2023-03-25T01:32:32;94353.97;;;22.56;27.74
43217;BME280;60511;42.686;23.300;2023-03-25T01:34:32;94369.00;;;22.57;27.37
43217;BME280;60511;42.686;23.300;2023-03-25T01:36:32;94338.47;;;22.34;27.46
43217;BME280;60511;42.686;23.300;2023-03-25T01:38:35;94305.53;;;22.24;27.20
43217;BME280;60511;42.686;23.300;2023-03-25T01:40:36;94313.34;;;22.30;27.78
43217;BME280;60511;42.686;23.300;2023-03-25T01:42:36;94348.06;;;22.51;28.19
43217;BME280;60511;42.686;23.300;2023-03-25T01:46:37;94350.50;;;22.56;27.36
43217;BME280;60511;42.686;23.300;2023-03-25T01:48:40;94340.00;;;22.51;27.64
43217;BME280;60511;42.686;23.300;2023-03-25T01:50:47;94353.91;;;22.53;27.48
43217;BME280;60511;42.686;23.300;2023-03-25T01:52:50;94365.88;;;22.55;27.59
43217;BME280;60511;42.686;23.300;2023-03-25T01:54:52;94325.34;;;22.32;27.35
43217;BME280;60511;42.686;23.300;2023-03-25T01:56:54;94364.69;;;22.53;27.42
43217;BME280;60511;42.686;23.300;2023-03-25T01:58:55;94360.16;;;22.57;27.55
43217;BME280;60511;42.686;23.300;2023-03-25T02:00:56;94356.69;;;22.56;27.22
43217;BME280;60511;42.686;23.300;2023-03-25T02:02:58;94322.22;;;22.30;27.43
43217;BME280;60511;42.686;23.300;2023-03-25T02:05:07;94351.53;;;22.51;27.83
43217;BME280;60511;42.686;23.300;2023-03-25T02:07:10;94281.69;;;22.11;27.55
43217;BME280;60511;42.686;23.300;2023-03-25T02:09:15;94357.03;;;22.55;27.16
43217;BME280;60511;42.686;23.300;2023-03-25T02:11:16;94354.31;;;22.55;27.33
43217;BME280;60511;42.686;23.300;2023-03-25T02:13:18;94340.63;;;22.44;27.36
43217;BME280;60511;42.686;23.300;2023-03-25T02:15:19;94282.94;;;22.13;27.35
43217;BME280;60511;42.686;23.300;2023-03-25T02:27:21;94326.38;;;22.43;27.56
43217;BME280;60511;42.686;23.300;2023-03-25T02:32:27;94334.81;;;22.42;27.39
43217;BME280;60511;42.686;23.300;2023-03-25T02:46:52;94330.59;;;22.44;27.49
43217;BME280;60511;42.686;23.300;2023-03-25T02:51:11;94332.03;;;22.38;27.57
43217;BME280;60511;42.686;23.300;2023-03-25T02:53:18;94298.59;;;22.23;27.25
43217;BME280;60511;42.686;23.300;2023-03-25T02:55:23;94323.28;;;22.25;27.51
43217;BME280;60511;42.686;23.300;2023-03-25T02:57:32;94238.69;;;21.79;28.07
43217;BME280;60511;42.686;23.300;2023-03-25T02:59:34;94232.94;;;21.80;27.91
43217;BME280;60511;42.686;23.300;2023-03-25T03:01:37;94324.66;;;22.35;27.47
43217;BME280;60511;42.686;23.300;2023-03-25T03:03:37;94261.25;;;21.90;27.54
43217;BME280;60511;42.686;23.300;2023-03-25T03:05:45;94292.75;;;22.21;27.57
43217;BME280;60511;42.686;23.300;2023-03-25T03:07:54;94313.44;;;22.33;27.56
43217;BME280;60511;42.686;23.300;2023-03-25T03:10:09;94310.38;;;22.35;27.57
43217;BME280;60511;42.686;23.300;2023-03-25T03:12:51;94297.25;;;22.33;27.31
43217;BME280;60511;42.686;23.300;2023-03-25T03:15:05;94290.72;;;22.18;27.52
43217;BME280;60511;42.686;23.300;2023-03-25T03:17:17;94312.63;;;22.33;27.66
43217;BME280;60511;42.686;23.300;2023-03-25T03:19:41;94314.28;;;22.37;27.80
43217;BME280;60511;42.686;23.300;2023-03-25T03:22:17;94317.50;;;22.27;27.83
43217;BME280;60511;42.686;23.300;2023-03-25T03:24:23;94311.34;;;22.26;28.18
43217;BME280;60511;42.686;23.300;2023-03-25T03:26:37;94321.69;;;22.24;28.07
43217;BME280;60511;42.686;23.300;2023-03-25T03:33:20;94273.25;;;21.93;27.71
43217;BME280;60511;42.686;23.300;2023-03-25T03:35:31;94316.41;;;22.28;27.93
43217;BME280;60511;42.686;23.300;2023-03-25T03:37:36;94305.78;;;22.19;27.99
43217;BME280;60511;42.686;23.300;2023-03-25T03:39:40;94316.41;;;22.12;27.93
43217;BME280;60511;42.686;23.300;2023-03-25T03:41:42;94325.19;;;22.25;27.99
43217;BME280;60511;42.686;23.300;2023-03-25T03:43:57;94332.31;;;22.17;28.35
43217;BME280;60511;42.686;23.300;2023-03-25T03:46:03;94325.34;;;22.16;28.36
43217;BME280;60511;42.686;23.300;2023-03-25T03:48:13;94312.94;;;22.12;27.75
43217;BME280;60511;42.686;23.300;2023-03-25T03:50:18;94274.78;;;21.94;27.60
43217;BME280;60511;42.686;23.300;2023-03-25T03:52:23;94319.53;;;22.30;27.74
43217;BME280;60511;42.686;23.300;2023-03-25T03:54:30;94225.53;;;21.58;27.54
43217;BME280;60511;42.686;23.300;2023-03-25T03:57:00;94318.22;;;22.24;27.96
43217;BME280;60511;42.686;23.300;2023-03-25T03:59:04;94251.19;;;21.71;27.89
43217;BME280;60511;42.686;23.300;2023-03-25T04:01:15;94317.59;;;22.15;27.60
43217;BME280;60511;42.686;23.300;2023-03-25T04:03:21;94292.09;;;21.93;27.91
43217;BME280;60511;42.686;23.300;2023-03-25T04:05:25;94321.59;;;22.21;27.63
43217;BME280;60511;42.686;23.300;2023-03-25T04:07:38;94297.81;;;22.07;27.70
43217;BME280;60511;42.686;23.300;2023-03-25T04:12:03;94291.69;;;21.91;28.85
43217;BME280;60511;42.686;23.300;2023-03-25T04:14:06;94176.81;;;21.15;28.88
43217;BME280;60511;42.686;23.300;2023-03-25T04:16:08;94322.94;;;22.11;29.16
43217;BME280;60511;42.686;23.300;2023-03-25T04:18:08;94320.50;;;22.06;28.87
43217;BME280;60511;42.686;23.300;2023-03-25T04:20:14;94237.94;;;21.46;28.86
43217;BME280;60511;42.686;23.300;2023-03-25T04:22:16;94317.47;;;22.07;28.75
43217;BME280;60511;42.686;23.300;2023-03-25T04:24:17;94323.63;;;22.08;28.73
43217;BME280;60511;42.686;23.300;2023-03-25T04:26:18;94319.59;;;22.18;28.54
43217;BME280;60511;42.686;23.300;2023-03-25T04:28:19;94334.91;;;22.14;28.70
43217;BME280;60511;42.686;23.300;2023-03-25T04:30:19;94310.78;;;22.01;28.68
43217;BME280;60511;42.686;23.300;2023-03-25T04:32:20;94301.28;;;22.07;28.27
43217;BME280;60511;42.686;23.300;2023-03-25T04:34:21;94329.88;;;22.12;28.09
43217;BME280;60511;42.686;23.300;2023-03-25T04:36:23;94323.47;;;22.01;28.83
43217;BME280;60511;42.686;23.300;2023-03-25T04:38:23;94328.38;;;22.15;29.00
43217;BME280;60511;42.686;23.300;2023-03-25T04:40:24;94323.16;;;22.22;28.07
43217;BME280;60511;42.686;23.300;2023-03-25T04:42:25;94318.41;;;22.15;28.08
43217;BME280;60511;42.686;23.300;2023-03-25T04:44:31;94291.75;;;21.94;28.33
43217;BME280;60511;42.686;23.300;2023-03-25T04:46:38;94354.06;;;22.24;28.18
43217;BME280;60511;42.686;23.300;2023-03-25T04:48:38;94337.53;;;22.26;28.23
43217;BME280;60511;42.686;23.300;2023-03-25T04:50:40;94341.72;;;22.23;27.84
43217;BME280;60511;42.686;23.300;2023-03-25T04:52:41;94334.72;;;22.22;28.39
43217;BME280;60511;42.686;23.300;2023-03-25T04:54:41;94328.81;;;22.17;28.42
43217;BME280;60511;42.686;23.300;2023-03-25T04:56:44;94339.81;;;22.24;28.11
43217;BME280;60511;42.686;23.300;2023-03-25T04:58:46;94335.19;;;22.24;28.08
43217;BME280;60511;42.686;23.300;2023-03-25T05:00:49;94279.41;;;21.93;27.95
43217;BME280;60511;42.686;23.300;2023-03-25T05:02:54;94339.03;;;22.23;27.99
43217;BME280;60511;42.686;23.300;2023-03-25T05:04:55;94318.84;;;22.17;28.82
43217;BME280;60511;42.686;23.300;2023-03-25T05:07:01;94314.13;;;22.14;28.63
43217;BME280;60511;42.686;23.300;2023-03-25T05:09:02;94298.78;;;21.99;28.49
43217;BME280;60511;42.686;23.300;2023-03-25T05:11:03;94227.69;;;21.52;28.75
43217;BME280;60511;42.686;23.300;2023-03-25T05:13:05;94310.00;;;22.01;28.37
43217;BME280;60511;42.686;23.300;2023-03-25T05:15:08;94249.56;;;21.66;28.18
43217;BME280;60511;42.686;23.300;2023-03-25T05:17:08;94331.38;;;22.25;28.85
43217;BME280;60511;42.686;23.300;2023-03-25T05:19:09;94288.00;;;21.99;28.75
43217;BME280;60511;42.686;23.300;2023-03-25T05:21:09;94348.41;;;22.30;28.66
43217;BME280;60511;42.686;23.300;2023-03-25T05:23:11;94303.97;;;22.07;28.12
43217;BME280;60511;42.686;23.300;2023-03-25T05:25:17;94342.22;;;22.29;28.19
43217;BME280;60511;42.686;23.300;2023-03-25T05:27:20;94349.44;;;22.25;28.58
43217;BME280;60511;42.686;23.300;2023-03-25T05:29:20;94338.66;;;22.25;29.13
43217;BME280;60511;42.686;23.300;2023-03-25T05:31:21;94331.59;;;22.20;28.80
43217;BME280;60511;42.686;23.300;2023-03-25T05:33:22;94333.00;;;22.14;28.46
43217;BME280;60511;42.686;23.300;2023-03-25T05:35:22;94319.97;;;22.00;28.89
43217;BME280;60511;42.686;23.300;2023-03-25T05:37:26;94345.63;;;22.26;28.57
43217;BME280;60511;42.686;23.300;2023-03-25T05:39:26;94320.03;;;22.20;28.47
43217;BME280;60511;42.686;23.300;2023-03-25T05:41:27;94339.09;;;22.27;28.37
43217;BME280;60511;42.686;23.300;2023-03-25T05:43:37;94341.59;;;22.20;28.33
43217;BME280;60511;42.686;23.300;2023-03-25T05:45:38;94233.50;;;21.54;28.89
43217;BME280;60511;42.686;23.300;2023-03-25T05:47:38;94259.09;;;21.80;28.49
43217;BME280;60511;42.686;23.300;2023-03-25T05:49:39;94347.34;;;22.34;28.59
43217;BME280;60511;42.686;23.300;2023-03-25T05:51:41;94309.09;;;22.13;28.24
43217;BME280;60511;42.686;23.300;2023-03-25T05:53:45;94344.31;;;22.36;27.83
43217;BME280;60511;42.686;23.300;2023-03-25T05:55:49;94318.47;;;22.19;28.01
43217;BME280;60511;42.686;23.300;2023-03-25T05:57:51;94333.59;;;22.39;27.83
43217;BME280;60511;42.686;23.300;2023-03-25T05:59:51;94311.34;;;22.26;27.92
43217;BME280;60511;42.686;23.300;2023-03-25T06:01:51;94321.34;;;22.26;27.93
43217;BME280;60511;42.686;23.300;2023-03-25T06:03:52;94323.50;;;22.36;27.89
43217;BME280;60511;42.686;23.300;2023-03-25T06:05:52;94312.94;;;22.27;28.16
43217;BME280;60511;42.686;23.300;2023-03-25T06:07:53;94182.44;;;21.42;27.62
43217;BME280;60511;42.686;23.300;2023-03-25T06:09:55;94193.22;;;21.58;28.02
43217;BME280;60511;42.686;23.300;2023-03-25T06:11:55;94298.22;;;22.25;27.80
43217;BME280;60511;42.686;23.300;2023-03-25T06:13:56;94262.50;;;22.12;28.04
43217;BME280;60511;42.686;23.300;2023-03-25T06:15:56;94338.06;;;22.51;28.02
43217;BME280;60511;42.686;23.300;2023-03-25T06:17:58;94346.25;;;22.55;27.76
43217;BME280;60511;42.686;23.300;2023-03-25T06:19:59;94340.50;;;22.56;27.70
43217;BME280;60511;42.686;23.300;2023-03-25T06:22:00;94336.22;;;22.55;27.94
43217;BME280;60511;42.686;23.300;2023-03-25T06:24:00;94335.09;;;22.56;28.01
43217;BME280;60511;42.686;23.300;2023-03-25T06:26:01;94304.97;;;22.35;28.01
43217;BME280;60511;42.686;23.300;2023-03-25T06:28:03;94336.72;;;22.61;27.99
43217;BME280;60511;42.686;23.300;2023-03-25T06:30:04;94317.22;;;22.48;28.11
43217;BME280;60511;42.686;23.300;2023-03-25T06:32:05;94341.44;;;22.64;27.69
43217;BME280;60511;42.686;23.300;2023-03-25T06:34:05;94330.56;;;22.60;28.10
43217;BME280;60511;42.686;23.300;2023-03-25T06:36:07;94332.53;;;22.63;28.16
43217;BME280;60511;42.686;23.300;2023-03-25T06:38:08;94261.00;;;22.15;28.03
43217;BME280;60511;42.686;23.300;2023-03-25T06:40:09;94307.34;;;22.56;28.08
43217;BME280;60511;42.686;23.300;2023-03-25T06:42:10;94336.16;;;22.71;27.86
43217;BME280;60511;42.686;23.300;2023-03-25T06:44:11;94341.22;;;22.73;28.11
43217;BME280;60511;42.686;23.300;2023-03-25T06:46:14;94335.03;;;22.72;27.99
43217;BME280;60511;42.686;23.300;2023-03-25T06:48:14;94309.63;;;22.54;28.16
43217;BME280;60511;42.686;23.300;2023-03-25T06:50:15;94313.53;;;22.56;27.73
43217;BME280;60511;42.686;23.300;2023-03-25T06:52:15;94351.72;;;22.78;27.91
43217;BME280;60511;42.686;23.300;2023-03-25T06:54:15;94318.19;;;22.59;28.01
43217;BME280;60511;42.686;23.300;2023-03-25T06:56:18;94351.38;;;22.79;27.84
43217;BME280;60511;42.686;23.300;2023-03-25T06:58:18;94350.59;;;22.79;28.01
43217;BME280;60511;42.686;23.300;2023-03-25T07:00:18;94357.53;;;22.80;27.83
43217;BME280;60511;42.686;23.300;2023-03-25T07:02:19;94360.66;;;22.82;27.91
43217;BME280;60511;42.686;23.300;2023-03-25T07:04:19;94217.28;;;21.86;27.67
43217;BME280;60511;42.686;23.300;2023-03-25T07:06:21;94350.28;;;22.84;27.93
43217;BME280;60511;42.686;23.300;2023-03-25T07:08:22;94295.97;;;22.46;27.95
43217;BME280;60511;42.686;23.300;2023-03-25T07:10:23;94351.78;;;22.81;28.42
43217;BME280;60511;42.686;23.300;2023-03-25T07:12:23;94291.34;;;22.47;28.05
43217;BME280;60511;42.686;23.300;2023-03-25T07:14:24;94295.28;;;22.50;27.96
43217;BME280;60511;42.686;23.300;2023-03-25T07:16:25;94347.66;;;22.87;27.91
43217;BME280;60511;42.686;23.300;2023-03-25T07:18:26;94345.41;;;22.90;27.86
43217;BME280;60511;42.686;23.300;2023-03-25T07:20:26;94355.50;;;22.93;27.96
43217;BME280;60511;42.686;23.300;2023-03-25T07:22:26;94345.13;;;22.95;27.67
43217;BME280;60511;42.686;23.300;2023-03-25T07:24:27;94349.09;;;23.01;27.50
43217;BME280;60511;42.686;23.300;2023-03-25T07:26:27;94355.72;;;23.03;27.58
43217;BME280;60511;42.686;23.300;2023-03-25T07:28:28;94333.06;;;23.08;27.88
43217;BME280;60511;42.686;23.300;2023-03-25T07:30:28;94296.91;;;22.74;27.92
43217;BME280;60511;42.686;23.300;2023-03-25T07:32:30;94255.72;;;22.57;27.58
43217;BME280;60511;42.686;23.300;2023-03-25T07:34:30;94341.16;;;23.08;27.82
43217;BME280;60511;42.686;23.300;2023-03-25T07:36:30;94339.03;;;23.17;27.87
43217;BME280;60511;42.686;23.300;2023-03-25T07:38:32;94340.56;;;23.18;27.59
43217;BME280;60511;42.686;23.300;2023-03-25T07:40:33;94341.00;;;23.20;27.61
43217;BME280;60511;42.686;23.300;2023-03-25T07:42:35;94331.97;;;23.13;27.53
43217;BME280;60511;42.686;23.300;2023-03-25T07:44:36;94332.53;;;23.22;27.71
43217;BME280;60511;42.686;23.300;2023-03-25T07:46:36;94333.66;;;23.21;27.81
43217;BME280;60511;42.686;23.300;2023-03-25T07:48:36;94330.63;;;23.22;27.85
43217;BME280;60511;42.686;23.300;2023-03-25T07:50:37;94289.72;;;23.01;27.55
43217;BME280;60511;42.686;23.300;2023-03-25T07:52:37;94335.31;;;23.25;27.62
43217;BME280;60511;42.686;23.300;2023-03-25T07:54:38;94328.41;;;23.28;27.81
43217;BME280;60511;42.686;23.300;2023-03-25T07:56:38;94319.97;;;23.30;27.56
43217;BME280;60511;42.686;23.300;2023-03-25T07:58:39;94317.69;;;23.32;27.34
43217;BME280;60511;42.686;23.300;2023-03-25T08:00:39;94305.38;;;23.34;27.87
43217;BME280;60511;42.686;23.300;2023-03-25T08:02:40;94285.06;;;23.21;27.41
43217;BME280;60511;42.686;23.300;2023-03-25T08:04:40;94305.78;;;23.36;27.63
43217;BME280;60511;42.686;23.300;2023-03-25T08:06:41;94307.41;;;23.41;27.65
43217;BME280;60511;42.686;23.300;2023-03-25T08:08:41;94304.72;;;23.41;27.56
43217;BME280;60511;42.686;23.300;2023-03-25T08:10:42;94313.22;;;23.43;27.71
43217;BME280;60511;42.686;23.300;2023-03-25T08:12:43;94307.41;;;23.41;27.84
43217;BME280;60511;42.686;23.300;2023-03-25T08:14:43;94263.00;;;23.15;27.78
43217;BME280;60511;42.686;23.300;2023-03-25T08:16:44;94287.41;;;23.45;27.55
43217;BME280;60511;42.686;23.300;2023-03-25T08:18:44;94299.06;;;23.50;27.73
43217;BME280;60511;42.686;23.300;2023-03-25T08:20:45;94302.25;;;23.55;27.43
43217;BME280;60511;42.686;23.300;2023-03-25T08:22:45;94298.44;;;23.60;27.54
43217;BME280;60511;42.686;23.300;2023-03-25T08:24:46;94296.16;;;23.62;27.60
43217;BME280;60511;42.686;23.300;2023-03-25T08:26:46;94206.53;;;23.06;27.50
43217;BME280;60511;42.686;23.300;2023-03-25T08:28:47;94293.53;;;23.65;27.29
43217;BME280;60511;42.686;23.300;2023-03-25T08:30:51;94296.31;;;23.69;27.41
43217;BME280;60511;42.686;23.300;2023-03-25T08:32:53;94253.31;;;23.37;27.53
43217;BME280;60511;42.686;23.300;2023-03-25T08:34:54;94283.22;;;23.71;27.55
43217;BME280;60511;42.686;23.300;2023-03-25T08:36:55;94283.16;;;23.67;27.31
43217;BME280;60511;42.686;23.300;2023-03-25T08:38:55;94304.88;;;23.75;27.55
43217;BME280;60511;42.686;23.300;2023-03-25T08:40:59;94289.81;;;23.74;27.40
43217;BME280;60511;42.686;23.300;2023-03-25T08:42:59;94281.34;;;23.75;27.49
43217;BME280;60511;42.686;23.300;2023-03-25T08:45:00;94264.06;;;23.80;27.42
43217;BME280;60511;42.686;23.300;2023-03-25T08:47:00;94272.16;;;23.80;27.50
43217;BME280;60511;42.686;23.300;2023-03-25T08:49:01;94275.69;;;23.84;27.64
43217;BME280;60511;42.686;23.300;2023-03-25T08:51:03;94229.78;;;23.61;27.58
43217;BME280;60511;42.686;23.300;2023-03-25T08:53:03;94279.97;;;23.85;27.55
43217;BME280;60511;42.686;23.300;2023-03-25T08:55:05;94267.97;;;23.82;27.60
43217;BME280;60511;42.686;23.300;2023-03-25T08:57:09;94236.84;;;23.69;27.60
43217;BME280;60511;42.686;23.300;2023-03-25T08:59:09;94163.91;;;23.16;27.74
43217;BME280;60511;42.686;23.300;2023-03-25T09:01:10;94268.00;;;23.86;27.58
43217;BME280;60511;42.686;23.300;2023-03-25T09:03:11;94241.84;;;23.67;27.71
43217;BME280;60511;42.686;23.300;2023-03-25T09:05:12;94234.03;;;23.62;27.60
43217;BME280;60511;42.686;23.300;2023-03-25T09:07:12;94273.47;;;23.90;27.53
43217;BME280;60511;42.686;23.300;2023-03-25T09:09:12;94263.81;;;23.89;27.53
43217;BME280;60511;42.686;23.300;2023-03-25T09:11:13;94251.38;;;23.84;27.56
43217;BME280;60511;42.686;23.300;2023-03-25T09:13:14;94252.91;;;23.81;27.49
43217;BME280;60511;42.686;23.300;2023-03-25T09:15:15;94254.88;;;23.84;27.67
43217;BME280;60511;42.686;23.300;2023-03-25T09:17:15;94250.59;;;23.83;27.40
43217;BME280;60511;42.686;23.300;2023-03-25T09:19:15;94254.56;;;23.90;27.38
43217;BME280;60511;42.686;23.300;2023-03-25T09:21:16;94201.78;;;23.73;27.29
43217;BME280;60511;42.686;23.300;2023-03-25T09:23:16;94197.91;;;23.70;27.61
43217;BME280;60511;42.686;23.300;2023-03-25T09:25:17;94243.84;;;23.97;27.36
43217;BME280;60511;42.686;23.300;2023-03-25T09:27:17;94234.81;;;23.85;27.60
43217;BME280;60511;42.686;23.300;2023-03-25T09:29:18;94254.19;;;23.91;27.50
43217;BME280;60511;42.686;23.300;2023-03-25T09:31:18;94112.13;;;23.10;27.68
43217;BME280;60511;42.686;23.300;2023-03-25T09:33:18;94239.09;;;23.86;27.48
43217;BME280;60511;42.686;23.300;2023-03-25T09:35:19;94238.69;;;23.88;27.55
43217;BME280;60511;42.686;23.300;2023-03-25T09:37:19;94230.22;;;23.90;27.38
43217;BME280;60511;42.686;23.300;2023-03-25T09:39:20;94240.97;;;23.86;27.87
43217;BME280;60511;42.686;23.300;2023-03-25T09:46:19;94213.69;;;23.68;27.88
43217;BME280;60511;42.686;23.300;2023-03-25T09:50:29;94223.69;;;23.67;27.62
43217;BME280;60511;42.686;23.300;2023-03-25T09:53:10;94199.81;;;23.70;27.80
43217;BME280;60511;42.686;23.300;2023-03-25T09:55:19;94190.31;;;23.53;27.59
43217;BME280;60511;42.686;23.300;2023-03-25T09:57:30;94196.75;;;23.44;27.46
43217;BME280;60511;42.686;23.300;2023-03-25T09:59:42;94203.75;;;23.49;27.82
43217;BME280;60511;42.686;23.300;2023-03-25T10:06:19;94214.19;;;23.51;27.98
43217;BME280;60511;42.686;23.300;2023-03-25T10:10:45;94199.25;;;23.57;28.32
43217;BME280;60511;42.686;23.300;2023-03-25T10:17:28;94179.09;;;23.51;27.80
43217;BME280;60511;42.686;23.300;2023-03-25T10:21:43;94174.09;;;23.53;28.51
43217;BME280;60511;42.686;23.300;2023-03-25T10:26:30;94159.75;;;23.49;28.12
43217;BME280;60511;42.686;23.300;2023-03-25T10:28:40;94166.00;;;23.53;28.13
43217;BME280;60511;42.686;23.300;2023-03-25T10:30:45;94044.94;;;22.78;28.20
43217;BME280;60511;42.686;23.300;2023-03-25T10:33:02;94157.16;;;23.56;28.30
43217;BME280;60511;42.686;23.300;2023-03-25T10:35:05;94152.44;;;23.49;28.25
43217;BME280;60511;42.686;23.300;2023-03-25T10:37:11;94102.22;;;23.18;28.25
43217;BME280;60511;42.686;23.300;2023-03-25T10:39:19;94158.78;;;23.60;28.37
43217;BME280;60511;42.686;23.300;2023-03-25T10:41:25;94145.63;;;23.59;28.38
43217;BME280;60511;42.686;23.300;2023-03-25T10:43:31;94128.53;;;23.51;28.19
43217;BME280;60511;42.686;23.300;2023-03-25T10:45:34;94156.06;;;23.60;28.36
43217;BME280;60511;42.686;23.300;2023-03-25T10:47:37;94152.97;;;23.62;28.14
43217;BME280;60511;42.686;23.300;2023-03-25T10:49:40;94142.97;;;23.62;27.88
43217;BME280;60511;42.686;23.300;2023-03-25T10:51:42;94147.59;;;23.62;28.00
43217;BME280;60511;42.686;23.300;2023-03-25T10:53:46;94106.72;;;23.37;28.24
43217;BME280;60511;42.686;23.300;2023-03-25T10:56:02;94126.72;;;23.59;28.10
43217;BME280;60511;42.686;23.300;2023-03-25T10:58:03;94128.66;;;23.62;28.31
43217;BME280;60511;42.686;23.300;2023-03-25T11:00:13;94116.38;;;23.64;28.10
43217;BME280;60511;42.686;23.300;2023-03-25T11:02:21;94134.50;;;23.64;28.01
43217;BME280;60511;42.686;23.300;2023-03-25T11:04:37;94118.31;;;23.64;28.15
43217;BME280;60511;42.686;23.300;2023-03-25T11:06:43;94111.38;;;23.66;28.17
43217;BME280;60511;42.686;23.300;2023-03-25T11:09:12;94060.00;;;23.33;28.05
43217;BME280;60511;42.686;23.300;2023-03-25T11:11:14;94101.63;;;23.58;28.11
43217;BME280;60511;42.686;23.300;2023-03-25T11:13:14;94115.28;;;23.69;27.94
43217;BME280;60511;42.686;23.300;2023-03-25T11:15:28;94092.47;;;23.66;28.13
43217;BME280;60511;42.686;23.300;2023-03-25T11:17:29;94045.09;;;23.42;28.10
43217;BME280;60511;42.686;23.300;2023-03-25T11:19:30;94090.53;;;23.67;28.27
43217;BME280;60511;42.686;23.300;2023-03-25T11:21:34;94102.91;;;23.68;28.21
43217;BME280;60511;42.686;23.300;2023-03-25T11:25:43;94084.00;;;23.68;28.43
43217;BME280;60511;42.686;23.300;2023-03-25T11:28:09;94074.63;;;23.58;28.25
43217;BME280;60511;42.686;23.300;2023-03-25T11:30:19;94096.34;;;23.69;27.93
43217;BME280;60511;42.686;23.300;2023-03-25T11:32:23;94088.63;;;23.67;28.13
43217;BME280;60511;42.686;23.300;2023-03-25T11:34:31;94078.97;;;23.66;27.99
43217;BME280;60511;42.686;23.300;2023-03-25T11:36:35;94070.91;;;23.70;28.22
43217;BME280;60511;42.686;23.300;2023-03-25T11:38:37;94069.75;;;23.71;28.27
43217;BME280;60511;42.686;23.300;2023-03-25T11:40:49;94041.38;;;23.54;28.23
43217;BME280;60511;42.686;23.300;2023-03-25T11:42:52;93977.56;;;23.12;28.16
43217;BME280;60511;42.686;23.300;2023-03-25T11:44:55;93972.22;;;23.16;28.05
43217;BME280;60511;42.686;23.300;2023-03-25T11:47:01;94075.66;;;23.77;28.18